Allegro — J8B5341 — position and weather

sailwx.info

Track history (hours):
 
Tides and Currents Weather Stations Pressure Air Temp Water Temp Dewpoint Dewpoint Depression Visibility Wind Speed Wind Dir Waves Ship Positions

Allegro

Last reported at 2018-Jun-25 14:00 UTC. Time now 2018-Jun-25 13:57 UTC.
Position N 26°06' W 080°05'.

Length 100 m; draft 4 m.

Type: Ship. MMSI: 376609000.

Date/timePositionNaut miles runAvg speedWind from/ knotsBaromVisibWave heightAir tempDewpointWater temp
2018-Jun-25 14:00N 26°06' W 080°05'2 4.2
2018-Jun-25 13:29N 26°08' W 080°04'0 0.3
2018-Jun-25 12:56N 26°08' W 080°04'0 0.1
2018-Jun-25 12:20N 26°08' W 080°04'0 0.0
2018-Jun-25 11:50N 26°08' W 080°04'0 0.0
2018-Jun-25 11:16N 26°08' W 080°04'0 0.1
2018-Jun-25 10:58N 26°08' W 080°04'0 0.0
2018-Jun-25 10:25N 26°08' W 080°04'0 0.0
2018-Jun-25 09:52N 26°08' W 080°04'0 0.0
2018-Jun-25 09:18N 26°08' W 080°04'0 0.0
2018-Jun-25 09:00N 26°08' W 080°04'0 0.0
2018-Jun-25 08:27N 26°08' W 080°04'0 0.0
2018-Jun-25 07:54N 26°08' W 080°04'0 0.0
2018-Jun-25 07:18N 26°08' W 080°04'0 0.0
2018-Jun-25 07:00N 26°08' W 080°04'0 0.0
2018-Jun-25 06:29N 26°08' W 080°04'0 0.0
2018-Jun-25 05:56N 26°08' W 080°04'0 0.0
2018-Jun-25 05:23N 26°08' W 080°04'0 0.0
2018-Jun-25 04:50N 26°08' W 080°04'0 0.0
2018-Jun-25 04:16N 26°08' W 080°04'0 0.0
2018-Jun-25 03:58N 26°08' W 080°04'0 0.0
2018-Jun-25 03:25N 26°08' W 080°04'0 0.0
2018-Jun-25 02:52N 26°08' W 080°04'0 0.0
2018-Jun-25 02:31N 26°08' W 080°04'0 0.0
2018-Jun-25 02:00N 26°08' W 080°04'0 0.0
2018-Jun-25 01:27N 26°08' W 080°04'0 0.0
2018-Jun-25 00:54N 26°08' W 080°04'0 0.0
2018-Jun-25 00:21N 26°08' W 080°04'0 0.0
2018-Jun-24 23:59N 26°08' W 080°04'0 0.0
2018-Jun-24 23:29N 26°08' W 080°04'0 0.0
2018-Jun-24 22:56N 26°08' W 080°04'0 0.0
2018-Jun-24 22:23N 26°08' W 080°04'0 0.0
2018-Jun-24 21:50N 26°08' W 080°04'0 0.0
2018-Jun-24 21:28N 26°08' W 080°04'0 0.0
2018-Jun-24 20:58N 26°08' W 080°04'0 0.1
2018-Jun-24 20:25N 26°08' W 080°04'0 0.0
2018-Jun-24 19:52N 26°08' W 080°04'0 0.1
2018-Jun-24 19:30N 26°08' W 080°04'0 0.0
2018-Jun-24 19:00N 26°08' W 080°04'0 0.0
2018-Jun-24 18:27N 26°08' W 080°04'0 0.0
2018-Jun-24 17:54N 26°08' W 080°04'0 0.0
2018-Jun-24 17:30N 26°08' W 080°04'0 0.0
2018-Jun-24 17:00N 26°08' W 080°04'0 0.0
2018-Jun-24 16:30N 26°08' W 080°04'0 0.0
2018-Jun-24 16:00N 26°08' W 080°04'0 0.1
2018-Jun-24 15:30N 26°08' W 080°04'0 0.0
2018-Jun-24 15:00N 26°08' W 080°04'0 0.0
2018-Jun-24 14:30N 26°08' W 080°04'0 0.0
2018-Jun-24 14:00N 26°08' W 080°04'0 0.0
2018-Jun-24 13:30N 26°08' W 080°04'0 0.0
2018-Jun-24 13:00N 26°08' W 080°04'2 3.2
2018-Jun-24 12:30N 26°08' W 080°03'510.0
2018-Jun-24 12:00N 26°07' W 079°57'510.5
2018-Jun-24 11:30N 26°07' W 079°51'510.4
2018-Jun-24 11:00N 26°08' W 079°46'510.4
2018-Jun-24 10:30N 26°08' W 079°40'510.0
2018-Jun-24 10:00N 26°08' W 079°34'5 9.1
2018-Jun-24 09:30N 26°09' W 079°29'5 9.4
2018-Jun-24 09:00N 26°09' W 079°24'1 0.0
2018-Jun-23 02:53N 26°09' W 079°22'510.7
2018-Jun-23 02:26N 26°10' W 079°28'511.7
2018-Jun-23 02:00N 26°10' W 079°33'612.0
2018-Jun-23 01:30N 26°09' W 079°40'612.5
2018-Jun-23 01:00N 26°08' W 079°47'612.7
2018-Jun-23 00:31N 26°07' W 079°53'612.1
2018-Jun-23 00:00N 26°05' W 079°60'510.1
2018-Jun-22 23:30N 26°06' W 080°05'2 4.1
2018-Jun-22 23:00N 26°04' W 080°07'0 0.0
2018-Jun-22 22:29N 26°04' W 080°07'0 0.0
2018-Jun-22 21:59N 26°04' W 080°07'0 0.0
2018-Jun-22 21:28N 26°04' W 080°07'0 0.0
2018-Jun-22 20:55N 26°04' W 080°07'0 0.1
2018-Jun-22 20:25N 26°04' W 080°07'0 0.0
2018-Jun-22 19:52N 26°04' W 080°07'0 0.0
2018-Jun-22 19:31N 26°04' W 080°07'0 0.0
2018-Jun-22 19:00N 26°04' W 080°07'0 0.0
2018-Jun-22 18:27N 26°04' W 080°07'0 0.0
2018-Jun-22 17:57N 26°04' W 080°07'0 0.0
2018-Jun-22 17:30N 26°04' W 080°07'0 0.0
2018-Jun-22 16:59N 26°04' W 080°07'0 0.0
2018-Jun-22 16:26N 26°04' W 080°07'0 0.0
2018-Jun-22 15:56N 26°04' W 080°07'0 0.7
2018-Jun-22 15:30N 26°04' W 080°07'3 5.6
2018-Jun-22 15:00N 26°06' W 080°04'1 2.4
2018-Jun-22 14:26N 26°08' W 080°04'0 0.1
2018-Jun-22 13:58N 26°08' W 080°04'0 0.0
2018-Jun-22 13:28N 26°08' W 080°04'0 0.0
2018-Jun-22 12:55N 26°08' W 080°04'0 0.0
2018-Jun-22 12:22N 26°08' W 080°04'0 0.1
2018-Jun-22 12:01N 26°08' W 080°04'0 0.0
2018-Jun-22 11:30N 26°08' W 080°04'0 0.0
2018-Jun-22 10:54N 26°08' W 080°04'0 0.0
2018-Jun-22 10:24N 26°08' W 080°04'0 0.0
2018-Jun-22 09:51N 26°08' W 080°04'0 0.0
2018-Jun-22 09:29N 26°08' W 080°04'0 0.0
2018-Jun-22 08:59N 26°08' W 080°04'0 0.0
2018-Jun-22 08:26N 26°08' W 080°04'0 0.0
2018-Jun-22 07:53N 26°08' W 080°04'0 0.1
2018-Jun-22 07:20N 26°07' W 080°04'0 0.1
2018-Jun-22 06:58N 26°07' W 080°04'0 0.0
2018-Jun-22 06:28N 26°07' W 080°04'0 0.0
2018-Jun-22 05:55N 26°07' W 080°04'0 0.0
2018-Jun-22 05:22N 26°07' W 080°04'0 0.0
2018-Jun-22 04:58N 26°07' W 080°04'0 0.0
2018-Jun-22 04:30N 26°07' W 080°04'0 0.0
2018-Jun-22 03:57N 26°07' W 080°04'0 0.0
2018-Jun-22 03:24N 26°07' W 080°04'0 0.0
2018-Jun-22 03:00N 26°07' W 080°04'0 0.1
2018-Jun-22 02:29N 26°08' W 080°04'0 0.0
2018-Jun-22 01:59N 26°07' W 080°04'0 0.1
2018-Jun-22 01:26N 26°08' W 080°04'0 0.0
2018-Jun-22 00:50N 26°08' W 080°04'0 0.0
2018-Jun-22 00:20N 26°08' W 080°04'0 0.0
2018-Jun-21 23:58N 26°08' W 080°04'0 0.0
2018-Jun-21 23:28N 26°08' W 080°04'0 0.0
2018-Jun-21 22:55N 26°08' W 080°04'0 0.0
2018-Jun-21 22:22N 26°08' W 080°04'0 0.1
2018-Jun-21 22:00N 26°08' W 080°04'0 0.1
2018-Jun-21 21:30N 26°08' W 080°04'0 0.2
2018-Jun-21 20:57N 26°08' W 080°04'0 0.1
2018-Jun-21 20:24N 26°08' W 080°04'0 0.0
2018-Jun-21 20:00N 26°08' W 080°04'0 0.0
2018-Jun-21 19:29N 26°08' W 080°04'0 0.6
2018-Jun-21 19:00N 26°08' W 080°04'4 8.6
2018-Jun-21 18:30N 26°08' W 079°59'510.3
2018-Jun-21 18:00N 26°08' W 079°54'510.0
2018-Jun-21 17:30N 26°09' W 079°48'510.2
2018-Jun-21 17:00N 26°09' W 079°42'510.3
2018-Jun-21 16:30N 26°09' W 079°37'510.2
2018-Jun-21 16:00N 26°09' W 079°31'  
2018-Jun-19 06:16N 26°12' W 079°28'312.2
2018-Jun-19 05:59N 26°11' W 079°32'612.2
2018-Jun-19 05:30N 26°11' W 079°38'612.3
2018-Jun-19 05:01N 26°09' W 079°45'612.3
2018-Jun-19 04:30N 26°08' W 079°52'612.3
2018-Jun-19 04:00N 26°07' W 079°58'611.8
2018-Jun-19 03:30N 26°06' W 080°05'2 3.6
2018-Jun-19 02:50N 26°04' W 080°07'0 0.0
2018-Jun-19 02:29N 26°04' W 080°07'0 0.0
2018-Jun-19 01:59N 26°04' W 080°07'0 0.0
2018-Jun-19 01:22N 26°04' W 080°07'0 0.0
2018-Jun-19 00:52N 26°04' W 080°07'0 0.0
2018-Jun-19 00:19N 26°04' W 080°07'0 0.0
2018-Jun-18 23:58N 26°04' W 080°07'0 0.0
2018-Jun-18 23:22N 26°04' W 080°07'0 0.0
2018-Jun-18 22:51N 26°04' W 080°07'0 0.0
2018-Jun-18 22:21N 26°04' W 080°07'0 0.0
2018-Jun-18 21:57N 26°04' W 080°07'0 0.0
2018-Jun-18 21:30N 26°04' W 080°07'0 0.0
2018-Jun-18 20:56N 26°04' W 080°07'0 0.0
2018-Jun-18 20:23N 26°04' W 080°07'0 0.0
2018-Jun-18 19:59N 26°04' W 080°07'0 0.0
2018-Jun-18 19:26N 26°04' W 080°07'0 0.0
2018-Jun-18 18:59N 26°04' W 080°07'0 0.0
2018-Jun-18 18:25N 26°04' W 080°07'0 0.0
2018-Jun-18 17:52N 26°04' W 080°07'1 3.2
2018-Jun-18 17:30N 26°05' W 080°07'3 6.8
2018-Jun-18 17:00N 26°06' W 080°03'3 6.5
2018-Jun-18 16:30N 26°06' W 079°60'2 4.4
2018-Jun-18 16:00N 26°06' W 079°57'2 4.1
2018-Jun-18 15:30N 26°07' W 079°55'3 6.1
2018-Jun-18 14:59N 26°07' W 079°51'4 8.5
2018-Jun-18 14:31N 26°07' W 079°47'5 9.3
2018-Jun-18 14:00N 26°07' W 079°42'5 9.9
2018-Jun-18 13:30N 26°07' W 079°36'511.0
2018-Jun-18 13:01N 26°07' W 079°30'6 0.2
2018-Jun-17 06:27N 26°12' W 079°25'510.8
2018-Jun-17 05:58N 26°11' W 079°31'511.1
2018-Jun-17 05:30N 26°11' W 079°36'611.6
2018-Jun-17 05:00N 26°10' W 079°43'611.6
2018-Jun-17 04:31N 26°09' W 079°49'612.2
2018-Jun-17 04:01N 26°08' W 079°56'612.1
2018-Jun-17 03:30N 26°07' W 080°02'4 8.7
2018-Jun-17 03:00N 26°05' W 080°07'1 1.5
2018-Jun-17 02:29N 26°04' W 080°07'0 0.0
2018-Jun-17 01:56N 26°04' W 080°07'0 0.0
2018-Jun-17 01:29N 26°04' W 080°07'0 0.0
2018-Jun-17 00:59N 26°04' W 080°07'0 0.0
2018-Jun-17 00:29N 26°04' W 080°07'0 0.0
2018-Jun-16 23:55N 26°04' W 080°07'0 0.0
2018-Jun-16 23:28N 26°04' W 080°07'0 0.0
2018-Jun-16 22:58N 26°04' W 080°07'0 0.0
2018-Jun-16 22:28N 26°04' W 080°07'0 0.3
2018-Jun-16 22:00N 26°04' W 080°07'2 4.9
2018-Jun-16 21:30N 26°06' W 080°05'3 5.3
2018-Jun-16 21:00N 26°06' W 080°02'2 3.8
2018-Jun-16 20:31N 26°06' W 079°60'2 3.5
2018-Jun-16 20:01N 26°06' W 079°58'1 2.9
2018-Jun-16 19:31N 26°07' W 079°56'2 3.3
2018-Jun-16 19:01N 26°07' W 079°55'3 6.0
2018-Jun-16 18:31N 26°08' W 079°51'510.6
2018-Jun-16 18:00N 26°08' W 079°45'611.3
2018-Jun-16 17:30N 26°08' W 079°39'611.5
2018-Jun-16 17:01N 26°08' W 079°33'612.0
2018-Jun-16 16:31N 26°07' W 079°26'  
Track history (hours):
 
Tides and Currents Weather Stations Pressure Air Temp Water Temp Dewpoint Dewpoint Depression Visibility Wind Speed Wind Dir Waves Ship Positions

Allegro

Last reported at 2018-Jun-25 14:00 UTC. Time now 2018-Jun-25 13:57 UTC.
Position N 26°06' W 080°05'.

Length 100 m; draft 4 m.

Type: Ship. MMSI: 376609000.

Date/timePositionNaut miles runAvg speedWind from/ knotsBaromVisibWave heightAir tempDewpointWater temp
2018-Jun-25 14:00N 26°06' W 080°05'2 4.2
2018-Jun-25 13:29N 26°08' W 080°04'0 0.3
2018-Jun-25 12:56N 26°08' W 080°04'0 0.1
2018-Jun-25 12:20N 26°08' W 080°04'0 0.0
2018-Jun-25 11:50N 26°08' W 080°04'0 0.0
2018-Jun-25 11:16N 26°08' W 080°04'0 0.1
2018-Jun-25 10:58N 26°08' W 080°04'0 0.0
2018-Jun-25 10:25N 26°08' W 080°04'0 0.0
2018-Jun-25 09:52N 26°08' W 080°04'0 0.0
2018-Jun-25 09:18N 26°08' W 080°04'0 0.0
2018-Jun-25 09:00N 26°08' W 080°04'0 0.0
2018-Jun-25 08:27N 26°08' W 080°04'0 0.0
2018-Jun-25 07:54N 26°08' W 080°04'0 0.0
2018-Jun-25 07:18N 26°08' W 080°04'0 0.0
2018-Jun-25 07:00N 26°08' W 080°04'0 0.0
2018-Jun-25 06:29N 26°08' W 080°04'0 0.0
2018-Jun-25 05:56N 26°08' W 080°04'0 0.0
2018-Jun-25 05:23N 26°08' W 080°04'0 0.0
2018-Jun-25 04:50N 26°08' W 080°04'0 0.0
2018-Jun-25 04:16N 26°08' W 080°04'0 0.0
2018-Jun-25 03:58N 26°08' W 080°04'0 0.0
2018-Jun-25 03:25N 26°08' W 080°04'0 0.0
2018-Jun-25 02:52N 26°08' W 080°04'0 0.0
2018-Jun-25 02:31N 26°08' W 080°04'0 0.0
2018-Jun-25 02:00N 26°08' W 080°04'0 0.0
2018-Jun-25 01:27N 26°08' W 080°04'0 0.0
2018-Jun-25 00:54N 26°08' W 080°04'0 0.0
2018-Jun-25 00:21N 26°08' W 080°04'0 0.0
2018-Jun-24 23:59N 26°08' W 080°04'0 0.0
2018-Jun-24 23:29N 26°08' W 080°04'0 0.0
2018-Jun-24 22:56N 26°08' W 080°04'0 0.0
2018-Jun-24 22:23N 26°08' W 080°04'0 0.0
2018-Jun-24 21:50N 26°08' W 080°04'0 0.0
2018-Jun-24 21:28N 26°08' W 080°04'0 0.0
2018-Jun-24 20:58N 26°08' W 080°04'0 0.1
2018-Jun-24 20:25N 26°08' W 080°04'0 0.0
2018-Jun-24 19:52N 26°08' W 080°04'0 0.1
2018-Jun-24 19:30N 26°08' W 080°04'0 0.0
2018-Jun-24 19:00N 26°08' W 080°04'0 0.0
2018-Jun-24 18:27N 26°08' W 080°04'0 0.0
2018-Jun-24 17:54N 26°08' W 080°04'0 0.0
2018-Jun-24 17:30N 26°08' W 080°04'0 0.0
2018-Jun-24 17:00N 26°08' W 080°04'0 0.0
2018-Jun-24 16:30N 26°08' W 080°04'0 0.0
2018-Jun-24 16:00N 26°08' W 080°04'0 0.1
2018-Jun-24 15:30N 26°08' W 080°04'0 0.0
2018-Jun-24 15:00N 26°08' W 080°04'0 0.0
2018-Jun-24 14:30N 26°08' W 080°04'0 0.0
2018-Jun-24 14:00N 26°08' W 080°04'0 0.0
2018-Jun-24 13:30N 26°08' W 080°04'0 0.0
2018-Jun-24 13:00N 26°08' W 080°04'2 3.2
2018-Jun-24 12:30N 26°08' W 080°03'510.0
2018-Jun-24 12:00N 26°07' W 079°57'510.5
2018-Jun-24 11:30N 26°07' W 079°51'510.4
2018-Jun-24 11:00N 26°08' W 079°46'510.4
2018-Jun-24 10:30N 26°08' W 079°40'510.0
2018-Jun-24 10:00N 26°08' W 079°34'5 9.1
2018-Jun-24 09:30N 26°09' W 079°29'5 9.4
2018-Jun-24 09:00N 26°09' W 079°24'1 0.0
2018-Jun-23 02:53N 26°09' W 079°22'510.7
2018-Jun-23 02:26N 26°10' W 079°28'511.7
2018-Jun-23 02:00N 26°10' W 079°33'612.0
2018-Jun-23 01:30N 26°09' W 079°40'612.5
2018-Jun-23 01:00N 26°08' W 079°47'612.7
2018-Jun-23 00:31N 26°07' W 079°53'612.1
2018-Jun-23 00:00N 26°05' W 079°60'510.1
2018-Jun-22 23:30N 26°06' W 080°05'2 4.1
2018-Jun-22 23:00N 26°04' W 080°07'0 0.0
2018-Jun-22 22:29N 26°04' W 080°07'0 0.0
2018-Jun-22 21:59N 26°04' W 080°07'0 0.0
2018-Jun-22 21:28N 26°04' W 080°07'0 0.0
2018-Jun-22 20:55N 26°04' W 080°07'0 0.1
2018-Jun-22 20:25N 26°04' W 080°07'0 0.0
2018-Jun-22 19:52N 26°04' W 080°07'0 0.0
2018-Jun-22 19:31N 26°04' W 080°07'0 0.0
2018-Jun-22 19:00N 26°04' W 080°07'0 0.0
2018-Jun-22 18:27N 26°04' W 080°07'0 0.0
2018-Jun-22 17:57N 26°04' W 080°07'0 0.0
2018-Jun-22 17:30N 26°04' W 080°07'0 0.0
2018-Jun-22 16:59N 26°04' W 080°07'0 0.0
2018-Jun-22 16:26N 26°04' W 080°07'0 0.0
2018-Jun-22 15:56N 26°04' W 080°07'0 0.7
2018-Jun-22 15:30N 26°04' W 080°07'3 5.6
2018-Jun-22 15:00N 26°06' W 080°04'1 2.4
2018-Jun-22 14:26N 26°08' W 080°04'0 0.1
2018-Jun-22 13:58N 26°08' W 080°04'0 0.0
2018-Jun-22 13:28N 26°08' W 080°04'0 0.0
2018-Jun-22 12:55N 26°08' W 080°04'0 0.0
2018-Jun-22 12:22N 26°08' W 080°04'0 0.1
2018-Jun-22 12:01N 26°08' W 080°04'0 0.0
2018-Jun-22 11:30N 26°08' W 080°04'0 0.0
2018-Jun-22 10:54N 26°08' W 080°04'0 0.0
2018-Jun-22 10:24N 26°08' W 080°04'0 0.0
2018-Jun-22 09:51N 26°08' W 080°04'0 0.0
2018-Jun-22 09:29N 26°08' W 080°04'0 0.0
2018-Jun-22 08:59N 26°08' W 080°04'0 0.0
2018-Jun-22 08:26N 26°08' W 080°04'0 0.0
2018-Jun-22 07:53N 26°08' W 080°04'0 0.1
2018-Jun-22 07:20N 26°07' W 080°04'0 0.1
2018-Jun-22 06:58N 26°07' W 080°04'0 0.0
2018-Jun-22 06:28N 26°07' W 080°04'0 0.0
2018-Jun-22 05:55N 26°07' W 080°04'0 0.0
2018-Jun-22 05:22N 26°07' W 080°04'0 0.0
2018-Jun-22 04:58N 26°07' W 080°04'0 0.0
2018-Jun-22 04:30N 26°07' W 080°04'0 0.0
2018-Jun-22 03:57N 26°07' W 080°04'0 0.0
2018-Jun-22 03:24N 26°07' W 080°04'0 0.0
2018-Jun-22 03:00N 26°07' W 080°04'0 0.1
2018-Jun-22 02:29N 26°08' W 080°04'0 0.0
2018-Jun-22 01:59N 26°07' W 080°04'0 0.1
2018-Jun-22 01:26N 26°08' W 080°04'0 0.0
2018-Jun-22 00:50N 26°08' W 080°04'0 0.0
2018-Jun-22 00:20N 26°08' W 080°04'0 0.0
2018-Jun-21 23:58N 26°08' W 080°04'0 0.0
2018-Jun-21 23:28N 26°08' W 080°04'0 0.0
2018-Jun-21 22:55N 26°08' W 080°04'0 0.0
2018-Jun-21 22:22N 26°08' W 080°04'0 0.1
2018-Jun-21 22:00N 26°08' W 080°04'0 0.1
2018-Jun-21 21:30N 26°08' W 080°04'0 0.2
2018-Jun-21 20:57N 26°08' W 080°04'0 0.1
2018-Jun-21 20:24N 26°08' W 080°04'0 0.0
2018-Jun-21 20:00N 26°08' W 080°04'0 0.0
2018-Jun-21 19:29N 26°08' W 080°04'0 0.6
2018-Jun-21 19:00N 26°08' W 080°04'4 8.6
2018-Jun-21 18:30N 26°08' W 079°59'510.3
2018-Jun-21 18:00N 26°08' W 079°54'510.0
2018-Jun-21 17:30N 26°09' W 079°48'510.2
2018-Jun-21 17:00N 26°09' W 079°42'510.3
2018-Jun-21 16:30N 26°09' W 079°37'510.2
2018-Jun-21 16:00N 26°09' W 079°31'  
2018-Jun-19 06:16N 26°12' W 079°28'312.2
2018-Jun-19 05:59N 26°11' W 079°32'612.2
2018-Jun-19 05:30N 26°11' W 079°38'612.3
2018-Jun-19 05:01N 26°09' W 079°45'612.3
2018-Jun-19 04:30N 26°08' W 079°52'612.3
2018-Jun-19 04:00N 26°07' W 079°58'611.8
2018-Jun-19 03:30N 26°06' W 080°05'2 3.6
2018-Jun-19 02:50N 26°04' W 080°07'0 0.0
2018-Jun-19 02:29N 26°04' W 080°07'0 0.0
2018-Jun-19 01:59N 26°04' W 080°07'0 0.0
2018-Jun-19 01:22N 26°04' W 080°07'0 0.0
2018-Jun-19 00:52N 26°04' W 080°07'0 0.0
2018-Jun-19 00:19N 26°04' W 080°07'0 0.0
2018-Jun-18 23:58N 26°04' W 080°07'0 0.0
2018-Jun-18 23:22N 26°04' W 080°07'0 0.0
2018-Jun-18 22:51N 26°04' W 080°07'0 0.0
2018-Jun-18 22:21N 26°04' W 080°07'0 0.0
2018-Jun-18 21:57N 26°04' W 080°07'0 0.0
2018-Jun-18 21:30N 26°04' W 080°07'0 0.0
2018-Jun-18 20:56N 26°04' W 080°07'0 0.0
2018-Jun-18 20:23N 26°04' W 080°07'0 0.0
2018-Jun-18 19:59N 26°04' W 080°07'0 0.0
2018-Jun-18 19:26N 26°04' W 080°07'0 0.0
2018-Jun-18 18:59N 26°04' W 080°07'0 0.0
2018-Jun-18 18:25N 26°04' W 080°07'0 0.0
2018-Jun-18 17:52N 26°04' W 080°07'1 3.2
2018-Jun-18 17:30N 26°05' W 080°07'3 6.8
2018-Jun-18 17:00N 26°06' W 080°03'3 6.5
2018-Jun-18 16:30N 26°06' W 079°60'2 4.4
2018-Jun-18 16:00N 26°06' W 079°57'2 4.1
2018-Jun-18 15:30N 26°07' W 079°55'3 6.1
2018-Jun-18 14:59N 26°07' W 079°51'4 8.5
2018-Jun-18 14:31N 26°07' W 079°47'5 9.3
2018-Jun-18 14:00N 26°07' W 079°42'5 9.9
2018-Jun-18 13:30N 26°07' W 079°36'511.0
2018-Jun-18 13:01N 26°07' W 079°30'6 0.2
2018-Jun-17 06:27N 26°12' W 079°25'510.8
2018-Jun-17 05:58N 26°11' W 079°31'511.1
2018-Jun-17 05:30N 26°11' W 079°36'611.6
2018-Jun-17 05:00N 26°10' W 079°43'611.6
2018-Jun-17 04:31N 26°09' W 079°49'612.2
2018-Jun-17 04:01N 26°08' W 079°56'612.1
2018-Jun-17 03:30N 26°07' W 080°02'4 8.7
2018-Jun-17 03:00N 26°05' W 080°07'1 1.5
2018-Jun-17 02:29N 26°04' W 080°07'0 0.0
2018-Jun-17 01:56N 26°04' W 080°07'0 0.0
2018-Jun-17 01:29N 26°04' W 080°07'0 0.0
2018-Jun-17 00:59N 26°04' W 080°07'0 0.0
2018-Jun-17 00:29N 26°04' W 080°07'0 0.0
2018-Jun-16 23:55N 26°04' W 080°07'0 0.0
2018-Jun-16 23:28N 26°04' W 080°07'0 0.0
2018-Jun-16 22:58N 26°04' W 080°07'0 0.0
2018-Jun-16 22:28N 26°04' W 080°07'0 0.3
2018-Jun-16 22:00N 26°04' W 080°07'2 4.9
2018-Jun-16 21:30N 26°06' W 080°05'3 5.3
2018-Jun-16 21:00N 26°06' W 080°02'2 3.8
2018-Jun-16 20:31N 26°06' W 079°60'2 3.5
2018-Jun-16 20:01N 26°06' W 079°58'1 2.9
2018-Jun-16 19:31N 26°07' W 079°56'2 3.3
2018-Jun-16 19:01N 26°07' W 079°55'3 6.0
2018-Jun-16 18:31N 26°08' W 079°51'510.6
2018-Jun-16 18:00N 26°08' W 079°45'611.3
2018-Jun-16 17:30N 26°08' W 079°39'611.5
2018-Jun-16 17:01N 26°08' W 079°33'612.0
2018-Jun-16 16:31N 26°07' W 079°26'  

Dump ship's entire track history